createdAt,value
2022-08-29T00:00:47.616Z,93780.06
2022-08-29T00:01:44.327Z,93773.13
2022-08-29T00:02:41.029Z,93773.81
2022-08-29T00:03:38.100Z,93770.63
2022-08-29T00:04:36.721Z,93771.09
2022-08-29T00:05:36.323Z,93777.63
2022-08-29T00:06:34.088Z,93770.25
2022-08-29T00:07:30.757Z,93774.88
2022-08-29T00:08:27.470Z,93776.47
2022-08-29T00:09:24.197Z,93774.16
2022-08-29T00:10:22.363Z,93769.91
2022-08-29T00:11:19.611Z,93769.41
2022-08-29T00:12:16.388Z,93770.63
2022-08-29T00:13:16.574Z,93783.34
2022-08-29T00:14:23.173Z,93782.59
2022-08-29T00:15:21.224Z,93771.34
2022-08-29T00:16:18.496Z,93779.00
2022-08-29T00:17:15.172Z,93770.59
2022-08-29T00:18:12.957Z,93777.28
2022-08-29T00:19:09.790Z,93766.19
2022-08-29T00:20:09.955Z,93779.00
2022-08-29T00:21:06.922Z,93780.22
2022-08-29T00:22:05.753Z,93782.13
2022-08-29T00:23:07.271Z,93775.56
2022-08-29T00:24:04.138Z,93775.56
2022-08-29T00:25:05.099Z,93760.53
2022-08-29T00:26:01.849Z,93783.25
2022-08-29T00:27:00.491Z,93770.88
2022-08-29T00:27:58.057Z,93781.97
2022-08-29T00:28:54.849Z,93779.31
2022-08-29T00:29:51.532Z,93779.69
2022-08-29T00:30:48.946Z,93787.06
2022-08-29T00:31:45.617Z,93777.38
2022-08-29T00:32:42.395Z,93784.81
2022-08-29T00:33:39.375Z,93772.34
2022-08-29T00:34:36.163Z,93763.16
2022-08-29T00:35:36.407Z,93783.69
2022-08-29T00:36:33.081Z,93783.31
2022-08-29T00:37:29.759Z,93789.16
2022-08-29T00:38:27.691Z,93782.47
2022-08-29T00:39:25.112Z,93780.06
2022-08-29T00:40:31.221Z,93773.94
2022-08-29T00:41:27.985Z,93783.25
2022-08-29T00:42:24.715Z,93786.06
2022-08-29T00:43:25.783Z,93779.50
2022-08-29T00:44:22.387Z,93769.53
2022-08-29T00:45:19.102Z,93778.78
2022-08-29T00:46:43.492Z,93784.91
2022-08-29T00:47:47.594Z,93781.03
2022-08-29T00:48:50.548Z,93789.16
2022-08-29T00:49:55.686Z,93788.38
2022-08-29T00:50:59.338Z,93794.16
2022-08-29T00:51:58.221Z,93781.81
2022-08-29T00:52:57.390Z,93791.09
2022-08-29T00:54:00.895Z,93792.41
2022-08-29T00:54:58.497Z,93760.13
2022-08-29T00:55:55.207Z,93791.78
2022-08-29T00:56:53.435Z,93764.13
2022-08-29T00:57:56.265Z,93784.47
2022-08-29T00:59:01.176Z,93783.75
2022-08-29T00:59:58.660Z,93789.84
2022-08-29T01:00:55.541Z,93787.91
2022-08-29T01:01:52.369Z,93789.53
2022-08-29T01:02:49.179Z,93789.53
2022-08-29T01:03:47.260Z,93794.63
2022-08-29T01:04:44.692Z,93781.97
2022-08-29T01:05:42.865Z,93792.75
2022-08-29T01:06:41.052Z,93773.38
2022-08-29T01:07:38.843Z,93783.47
2022-08-29T01:08:37.648Z,93780.31
2022-08-29T01:09:37.309Z,93783.00
2022-08-29T01:10:54.328Z,93781.47
2022-08-29T01:12:09.703Z,93782.19
2022-08-29T01:13:09.287Z,93780.69
2022-08-29T01:14:06.040Z,93786.25
2022-08-29T01:15:10.809Z,93781.19
2022-08-29T01:16:09.438Z,93764.78
2022-08-29T01:17:09.352Z,93773.91
2022-08-29T01:18:08.211Z,93777.53
2022-08-29T01:19:19.386Z,93771.00
2022-08-29T01:20:29.825Z,93778.44
2022-08-29T01:21:43.011Z,93783.00
2022-08-29T01:22:51.647Z,93777.78
2022-08-29T01:24:14.687Z,93773.94
2022-08-29T01:25:17.901Z,93771.31
2022-08-29T01:26:14.962Z,93775.13
2022-08-29T01:27:14.281Z,93773.63
2022-08-29T01:28:17.299Z,93777.47
2022-08-29T01:29:16.117Z,93770.94
2022-08-29T01:30:15.181Z,93764.00
2022-08-29T01:31:37.818Z,93762.81
2022-08-29T01:32:37.031Z,93765.50
2022-08-29T01:33:57.048Z,93760.16
2022-08-29T01:34:54.363Z,93765.13
2022-08-29T01:35:51.248Z,93739.72
2022-08-29T01:37:03.726Z,93770.13
2022-08-29T01:38:00.438Z,93764.28
2022-08-29T01:38:57.053Z,93765.38
2022-08-29T01:39:53.755Z,93764.97
2022-08-29T01:40:50.497Z,93747.41
2022-08-29T01:41:47.133Z,93763.56
2022-08-29T01:42:44.408Z,93756.28
2022-08-29T01:43:45.302Z,93773.22
2022-08-29T01:44:47.556Z,93767.03
2022-08-29T01:45:44.495Z,93768.97
2022-08-29T01:46:41.259Z,93770.53
2022-08-29T01:47:38.955Z,93758.56
2022-08-29T01:48:38.340Z,93773.16
2022-08-29T01:49:40.846Z,93774.34
2022-08-29T01:50:37.751Z,93775.81
2022-08-29T01:51:35.561Z,93779.34
2022-08-29T01:52:32.499Z,93777.06
2022-08-29T01:53:29.149Z,93783.19
2022-08-29T01:54:25.859Z,93769.75
2022-08-29T01:55:22.567Z,93774.81
2022-08-29T01:56:23.616Z,93774.78
2022-08-29T01:57:20.666Z,93768.28
2022-08-29T01:58:17.367Z,93774.09
2022-08-29T01:59:18.943Z,93774.50
2022-08-29T02:00:17.806Z,93767.56
2022-08-29T02:01:19.072Z,93783.38
2022-08-29T02:02:26.111Z,93778.34
2022-08-29T02:03:22.812Z,93783.34
2022-08-29T02:04:19.581Z,93777.59
2022-08-29T02:05:16.233Z,93786.84
2022-08-29T02:06:12.895Z,93781.44
2022-08-29T02:07:12.694Z,93783.38
2022-08-29T02:08:09.808Z,93786.47
2022-08-29T02:09:07.201Z,93786.06
2022-08-29T02:10:08.289Z,93788.34
2022-08-29T02:11:09.988Z,93786.03
2022-08-29T02:12:07.219Z,93786.81
2022-08-29T02:13:03.917Z,93781.41
2022-08-29T02:14:01.657Z,93790.63
2022-08-29T02:14:59.004Z,93779.44
2022-08-29T02:15:55.750Z,93784.09
2022-08-29T02:16:52.429Z,93782.94
2022-08-29T02:17:49.171Z,93790.25
2022-08-29T02:18:46.260Z,93767.56
2022-08-29T02:19:43.606Z,93782.91
2022-08-29T02:20:40.286Z,93777.16
2022-08-29T02:21:37.286Z,93765.59
2022-08-29T02:22:35.465Z,93785.97
2022-08-29T02:23:34.968Z,93789.84
2022-08-29T02:24:31.713Z,93783.66
2022-08-29T02:25:43.684Z,93792.50
2022-08-29T02:26:40.380Z,93794.41
2022-08-29T02:27:37.217Z,93779.00
2022-08-29T02:28:36.033Z,93794.72
2022-08-29T02:29:37.851Z,93793.56
2022-08-29T02:30:34.948Z,93791.34
2022-08-29T02:31:31.889Z,93795.97
2022-08-29T02:32:29.957Z,93795.97
2022-08-29T02:33:27.221Z,93790.22
2022-08-29T02:34:25.970Z,93792.53
2022-08-29T02:35:24.277Z,93792.56
2022-08-29T02:36:22.438Z,93792.94
2022-08-29T02:37:19.045Z,93790.28
2022-08-29T02:38:16.456Z,93791.03
2022-08-29T02:39:13.125Z,93795.69
2022-08-29T02:40:10.239Z,93792.22
2022-08-29T02:41:09.339Z,93785.69
2022-08-29T02:42:09.110Z,93791.06
2022-08-29T02:43:06.506Z,93794.94
2022-08-29T02:44:05.114Z,93793.38
2022-08-29T02:45:01.800Z,93757.56
2022-08-29T02:45:58.844Z,93796.09
2022-08-29T02:46:56.321Z,93788.75
2022-08-29T02:47:53.246Z,93785.69
2022-08-29T02:48:54.149Z,93776.44
2022-08-29T02:49:58.432Z,93794.13
2022-08-29T02:50:59.050Z,93781.81
2022-08-29T02:51:56.686Z,93795.69
2022-08-29T02:52:53.637Z,93796.84
2022-08-29T02:53:50.838Z,93800.72
2022-08-29T02:54:47.555Z,93793.78
2022-08-29T02:55:44.322Z,93801.09
2022-08-29T02:56:41.263Z,93796.88
2022-08-29T02:57:37.993Z,93792.25
2022-08-29T02:58:34.737Z,93798.03
2022-08-29T02:59:31.801Z,93797.66
2022-08-29T03:00:28.776Z,93798.41
2022-08-29T03:01:26.305Z,93806.88
2022-08-29T03:02:23.184Z,93802.63
2022-08-29T03:03:20.567Z,93816.44
2022-08-29T03:04:17.156Z,93804.59
2022-08-29T03:05:15.137Z,93809.59
2022-08-29T03:06:12.544Z,93808.81
2022-08-29T03:07:09.176Z,93813.03
2022-08-29T03:08:10.300Z,93806.88
2022-08-29T03:09:07.025Z,93808.81
2022-08-29T03:10:04.517Z,93809.97
2022-08-29T03:11:01.753Z,93803.41
2022-08-29T03:11:58.771Z,93801.84
2022-08-29T03:12:55.800Z,93812.97
2022-08-29T03:13:52.541Z,93801.81
2022-08-29T03:14:54.551Z,93814.91
2022-08-29T03:15:52.936Z,93812.22
2022-08-29T03:16:49.716Z,93812.22
2022-08-29T03:17:46.940Z,93811.81
2022-08-29T03:18:43.712Z,93813.00
2022-08-29T03:19:40.417Z,93816.44
2022-08-29T03:20:38.620Z,93802.97
2022-08-29T03:21:35.251Z,93792.13
2022-08-29T03:22:33.932Z,93809.13
2022-08-29T03:23:30.577Z,93809.53
2022-08-29T03:24:28.307Z,93812.22
2022-08-29T03:25:25.926Z,93806.09
2022-08-29T03:26:23.731Z,93810.75
2022-08-29T03:27:21.239Z,93810.72
2022-08-29T03:28:18.001Z,93807.25
2022-08-29T03:29:14.651Z,93809.19
2022-08-29T03:30:19.131Z,93811.88
2022-08-29T03:31:16.406Z,93816.13
2022-08-29T03:32:13.408Z,93810.34
2022-08-29T03:33:11.924Z,93811.47
2022-08-29T03:34:08.859Z,93810.34
2022-08-29T03:35:07.277Z,93808.41
2022-08-29T03:36:11.146Z,93818.44
2022-08-29T03:37:11.187Z,93814.97
2022-08-29T03:38:07.850Z,93814.56
2022-08-29T03:39:04.508Z,93813.81
2022-08-29T03:40:01.392Z,93813.44
2022-08-29T03:40:58.231Z,93816.13
2022-08-29T03:41:55.663Z,93819.59
2022-08-29T03:42:53.362Z,93807.66
2022-08-29T03:43:50.649Z,93821.91
2022-08-29T03:44:47.814Z,93816.53
2022-08-29T03:45:44.882Z,93816.91
2022-08-29T03:46:41.872Z,93810.31
2022-08-29T03:47:39.454Z,93818.78
2022-08-29T03:48:36.256Z,93827.63
2022-08-29T03:49:33.699Z,93815.31
2022-08-29T03:50:30.899Z,93824.94
2022-08-29T03:51:29.491Z,93819.53
2022-08-29T03:52:26.640Z,93821.13
2022-08-29T03:53:23.558Z,93805.72
2022-08-29T03:54:21.361Z,93823.84
2022-08-29T03:55:20.334Z,93826.91
2022-08-29T03:56:18.878Z,93835.41
2022-08-29T03:57:15.793Z,93833.47
2022-08-29T03:58:12.430Z,93835.00
2022-08-29T03:59:09.321Z,93823.44
2022-08-29T04:00:12.419Z,93836.16
2022-08-29T04:01:09.848Z,93843.50
2022-08-29T04:02:06.530Z,93834.63
2022-08-29T04:03:03.428Z,93837.31
2022-08-29T04:04:00.598Z,93838.09
2022-08-29T04:05:08.965Z,93835.75
2022-08-29T04:06:05.957Z,93844.59
2022-08-29T04:07:06.401Z,93843.41
2022-08-29T04:08:03.900Z,93831.13
2022-08-29T04:09:01.309Z,93831.88
2022-08-29T04:09:59.383Z,93839.56
2022-08-29T04:10:56.032Z,93843.00
2022-08-29T04:11:52.673Z,93836.09
2022-08-29T04:12:53.922Z,93837.25
2022-08-29T04:13:53.256Z,93836.09
2022-08-29T04:14:49.857Z,93836.91
2022-08-29T04:15:46.566Z,93833.44
2022-08-29T04:16:49.941Z,93837.31
2022-08-29T04:17:52.689Z,93821.13
2022-08-29T04:18:50.106Z,93841.53
2022-08-29T04:19:46.699Z,93838.09
2022-08-29T04:20:45.152Z,93846.19
2022-08-29T04:21:41.828Z,93830.75
2022-08-29T04:22:41.168Z,93841.13
2022-08-29T04:23:39.621Z,93844.56
2022-08-29T04:24:36.265Z,93843.03
2022-08-29T04:25:37.456Z,93840.69
2022-08-29T04:26:37.409Z,93821.78
2022-08-29T04:27:36.788Z,93841.88
2022-08-29T04:28:33.437Z,93839.19
2022-08-29T04:29:30.118Z,93839.56
2022-08-29T04:30:28.172Z,93848.03
2022-08-29T04:31:24.845Z,93839.97
2022-08-29T04:32:21.549Z,93840.00
2022-08-29T04:33:22.526Z,93830.00
2022-08-29T04:34:21.200Z,93850.44
2022-08-29T04:35:17.986Z,93829.25
2022-08-29T04:36:15.119Z,93835.78
2022-08-29T04:37:12.240Z,93853.88
2022-08-29T04:38:08.923Z,93850.81
2022-08-29T04:39:06.555Z,93849.66
2022-08-29T04:40:03.358Z,93851.56
2022-08-29T04:40:59.979Z,93850.03
2022-08-29T04:41:56.584Z,93846.19
2022-08-29T04:42:53.233Z,93851.59
2022-08-29T04:43:50.026Z,93840.41
2022-08-29T04:44:48.117Z,93845.41
2022-08-29T04:45:44.744Z,93850.81
2022-08-29T04:46:41.590Z,93806.50
2022-08-29T04:47:39.768Z,93857.34
2022-08-29T04:48:36.436Z,93853.13
2022-08-29T04:49:33.151Z,93831.53
2022-08-29T04:50:30.217Z,93857.72
2022-08-29T04:51:26.953Z,93865.44
2022-08-29T04:52:23.974Z,93868.16
2022-08-29T04:53:20.606Z,93866.56
2022-08-29T04:54:17.218Z,93865.41
2022-08-29T04:55:19.539Z,93863.47
2022-08-29T04:56:18.619Z,93865.00
2022-08-29T04:57:15.269Z,93876.97
2022-08-29T04:58:12.861Z,93871.94
2022-08-29T04:59:09.556Z,93869.22
2022-08-29T05:00:14.048Z,93875.38
2022-08-29T05:01:15.566Z,93872.69
2022-08-29T05:02:12.219Z,93856.53
2022-08-29T05:03:08.873Z,93876.94
2022-08-29T05:04:05.616Z,93880.00
2022-08-29T05:05:02.541Z,93874.56
2022-08-29T05:06:02.160Z,93873.00
2022-08-29T05:06:58.760Z,93875.69
2022-08-29T05:07:55.450Z,93870.69
2022-08-29T05:08:58.826Z,93881.44
2022-08-29T05:09:59.108Z,93879.91
2022-08-29T05:10:56.369Z,93882.63
2022-08-29T05:11:53.018Z,93890.31
2022-08-29T05:12:49.810Z,93877.19
2022-08-29T05:13:48.498Z,93883.03
2022-08-29T05:14:45.201Z,93884.25
2022-08-29T05:15:42.080Z,93883.47
2022-08-29T05:16:39.020Z,93889.19
2022-08-29T05:17:35.760Z,93879.09
2022-08-29T05:18:32.471Z,93895.63
2022-08-29T05:19:29.124Z,93899.06
2022-08-29T05:20:32.631Z,93899.03
2022-08-29T05:21:35.818Z,93898.22
2022-08-29T05:22:33.345Z,93902.78
2022-08-29T05:23:30.341Z,93903.47
2022-08-29T05:24:26.995Z,93900.31
2022-08-29T05:25:24.129Z,93904.50
2022-08-29T05:26:20.832Z,93903.34
2022-08-29T05:27:21.795Z,93905.69
2022-08-29T05:28:18.404Z,93903.72
2022-08-29T05:29:15.219Z,93892.13
2022-08-29T05:30:11.938Z,93890.19
2022-08-29T05:31:13.756Z,93908.28
2022-08-29T05:32:12.077Z,93902.91
2022-08-29T05:33:08.760Z,93908.72
2022-08-29T05:34:18.384Z,93900.97
2022-08-29T05:35:22.144Z,93904.06
2022-08-29T05:36:18.896Z,93906.34
2022-08-29T05:37:19.564Z,93905.97
2022-08-29T05:38:16.635Z,93910.19
2022-08-29T05:39:13.820Z,93898.19
2022-08-29T05:40:10.935Z,93898.56
2022-08-29T05:41:07.686Z,93898.91
2022-08-29T05:42:06.048Z,93898.13
2022-08-29T05:43:03.067Z,93899.69
2022-08-29T05:43:59.674Z,93903.94
2022-08-29T05:44:56.946Z,93897.75
2022-08-29T05:46:05.200Z,93892.38
2022-08-29T05:47:03.721Z,93906.19
2022-08-29T05:48:04.647Z,93903.50
2022-08-29T05:49:01.253Z,93901.94
2022-08-29T05:49:58.145Z,93909.66
2022-08-29T05:50:54.757Z,93915.09
2022-08-29T05:51:55.956Z,93909.28
2022-08-29T05:52:52.592Z,93910.00
2022-08-29T05:53:49.244Z,93912.69
2022-08-29T05:54:46.613Z,93909.19
2022-08-29T05:55:44.384Z,93909.63
2022-08-29T05:56:41.079Z,93908.03
2022-08-29T05:57:37.830Z,93909.63
2022-08-29T05:58:34.480Z,93910.72
2022-08-29T05:59:31.132Z,93904.50
2022-08-29T06:00:27.804Z,93911.06
2022-08-29T06:01:32.912Z,93918.75
2022-08-29T06:02:30.045Z,93912.13
2022-08-29T06:03:26.988Z,93910.31
2022-08-29T06:04:23.926Z,93907.63
2022-08-29T06:05:20.597Z,93907.16
2022-08-29T06:06:21.004Z,93905.97
2022-08-29T06:07:19.689Z,93907.81
2022-08-29T06:08:16.543Z,93910.97
2022-08-29T06:09:14.033Z,93911.72
2022-08-29T06:10:10.707Z,93909.38
2022-08-29T06:11:14.396Z,93914.00
2022-08-29T06:12:13.757Z,93911.31
2022-08-29T06:13:11.151Z,93905.22
2022-08-29T06:14:07.863Z,93907.50
2022-08-29T06:15:05.071Z,93914.94
2022-08-29T06:16:01.890Z,93899.84
2022-08-29T06:16:58.977Z,93915.16
2022-08-29T06:17:55.872Z,93905.72
2022-08-29T06:18:53.224Z,93910.94
2022-08-29T06:19:51.742Z,93906.53
2022-08-29T06:20:48.353Z,93897.59
2022-08-29T06:21:45.054Z,93915.22
2022-08-29T06:22:41.835Z,93910.13
2022-08-29T06:23:40.793Z,93887.81
2022-08-29T06:24:39.283Z,93912.81
2022-08-29T06:25:40.036Z,93913.00
2022-08-29T06:26:37.467Z,93915.16
2022-08-29T06:27:34.204Z,93916.78
2022-08-29T06:28:32.292Z,93915.44
2022-08-29T06:29:29.184Z,93902.69
2022-08-29T06:30:26.068Z,93920.72
2022-08-29T06:31:27.187Z,93917.19
2022-08-29T06:32:24.521Z,93913.31
2022-08-29T06:33:21.373Z,93916.28
2022-08-29T06:34:17.999Z,93912.22
2022-08-29T06:35:14.716Z,93916.19
2022-08-29T06:36:11.527Z,93915.41
2022-08-29T06:37:08.413Z,93901.50
2022-08-29T06:38:05.048Z,93918.50
2022-08-29T06:39:04.797Z,93915.53
2022-08-29T06:40:01.414Z,93918.13
2022-08-29T06:41:03.023Z,93923.63
2022-08-29T06:41:59.730Z,93912.34
2022-08-29T06:42:56.537Z,93916.06
2022-08-29T06:43:55.209Z,93915.84
2022-08-29T06:44:52.283Z,93913.53
2022-08-29T06:45:49.295Z,93913.97
2022-08-29T06:46:50.040Z,93916.38
2022-08-29T06:47:47.809Z,93907.97
2022-08-29T06:48:44.510Z,93914.09
2022-08-29T06:49:41.384Z,93903.22
2022-08-29T06:50:43.569Z,93914.47
2022-08-29T06:51:44.368Z,93910.25
2022-08-29T06:52:41.120Z,93921.88
2022-08-29T06:53:39.849Z,93912.44
2022-08-29T06:54:36.730Z,93915.44
2022-08-29T06:55:35.473Z,93913.84
2022-08-29T06:56:33.213Z,93907.56
2022-08-29T06:57:33.363Z,93922.16
2022-08-29T06:58:30.027Z,93911.06
2022-08-29T06:59:27.289Z,93916.91
2022-08-29T07:00:23.951Z,93919.63
2022-08-29T07:01:21.498Z,93922.13
2022-08-29T07:02:18.200Z,93915.94
2022-08-29T07:03:15.447Z,93916.84
2022-08-29T07:04:14.295Z,93913.16
2022-08-29T07:05:11.532Z,93920.53
2022-08-29T07:06:09.478Z,93917.88
2022-08-29T07:07:06.253Z,93920.47
2022-08-29T07:08:03.197Z,93922.63
2022-08-29T07:09:00.234Z,93921.09
2022-08-29T07:09:57.025Z,93921.66
2022-08-29T07:10:53.676Z,93926.19
2022-08-29T07:11:50.665Z,93915.03
2022-08-29T07:12:47.328Z,93934.28
2022-08-29T07:13:44.568Z,93936.72
2022-08-29T07:14:41.186Z,93933.25
2022-08-29T07:15:37.946Z,93932.91
2022-08-29T07:16:36.872Z,93939.03
2022-08-29T07:17:34.293Z,93937.63
2022-08-29T07:18:30.939Z,93937.72
2022-08-29T07:19:27.857Z,93935.19
2022-08-29T07:20:24.684Z,93947.19
2022-08-29T07:21:24.176Z,93924.09
2022-08-29T07:22:21.346Z,93943.94
2022-08-29T07:23:18.297Z,93947.84
2022-08-29T07:24:15.064Z,93950.47
2022-08-29T07:25:11.756Z,93943.06
2022-08-29T07:26:23.615Z,93946.56
2022-08-29T07:27:20.357Z,93947.84
2022-08-29T07:28:17.206Z,93942.53
2022-08-29T07:29:18.470Z,93942.47
2022-08-29T07:30:16.582Z,93941.84
2022-08-29T07:31:13.404Z,93953.88
2022-08-29T07:32:10.381Z,93947.72
2022-08-29T07:33:07.273Z,93946.78
2022-08-29T07:34:03.980Z,93944.91
2022-08-29T07:35:00.667Z,93950.78
2022-08-29T07:36:01.297Z,93951.56
2022-08-29T07:36:58.205Z,93950.53
2022-08-29T07:38:01.238Z,93948.91
2022-08-29T07:38:57.977Z,93955.97
2022-08-29T07:39:54.674Z,93959.66
2022-08-29T07:41:01.734Z,93963.72
2022-08-29T07:41:58.996Z,93956.03
2022-08-29T07:42:55.597Z,93951.47
2022-08-29T07:43:53.442Z,93959.66
2022-08-29T07:44:50.217Z,93949.38
2022-08-29T07:45:47.040Z,93941.41
2022-08-29T07:46:44.938Z,93951.94
2022-08-29T07:47:41.708Z,93950.34
2022-08-29T07:48:38.813Z,93957.03
2022-08-29T07:49:41.337Z,93953.97
2022-08-29T07:50:42.204Z,93945.34
2022-08-29T07:51:40.538Z,93936.72
2022-08-29T07:52:41.283Z,93951.66
2022-08-29T07:53:38.810Z,93954.63
2022-08-29T07:54:35.495Z,93935.75
2022-08-29T07:55:32.145Z,93947.97
2022-08-29T07:56:35.850Z,93949.44
2022-08-29T07:57:36.958Z,93953.22
2022-08-29T07:58:37.877Z,93951.38
2022-08-29T07:59:34.663Z,93951.94
2022-08-29T08:00:32.020Z,93950.38
2022-08-29T08:01:28.764Z,93953.59
2022-08-29T08:02:25.542Z,93954.88
2022-08-29T08:03:22.363Z,93951.94
2022-08-29T08:04:19.271Z,93957.19
2022-08-29T08:05:15.942Z,93944.63
2022-08-29T08:06:12.851Z,93949.81
2022-08-29T08:07:13.851Z,93951.09
2022-08-29T08:08:15.296Z,93944.78
2022-08-29T08:09:14.140Z,93947.13
2022-08-29T08:10:11.218Z,93950.78
2022-08-29T08:11:08.915Z,93955.00
2022-08-29T08:12:08.364Z,93939.88
2022-08-29T08:13:05.178Z,93941.09
2022-08-29T08:14:02.549Z,93936.00
2022-08-29T08:14:59.173Z,93946.66
2022-08-29T08:15:55.824Z,93941.44
2022-08-29T08:16:52.559Z,93911.56
2022-08-29T08:17:49.295Z,93934.34
2022-08-29T08:18:46.217Z,93945.34
2022-08-29T08:19:43.142Z,93943.13
2022-08-29T08:20:39.852Z,93942.56
2022-08-29T08:21:36.849Z,93938.63
2022-08-29T08:22:41.333Z,93928.25
2022-08-29T08:23:39.114Z,93937.88
2022-08-29T08:24:35.950Z,93941.44
2022-08-29T08:25:32.721Z,93936.91
2022-08-29T08:26:29.768Z,93926.00
2022-08-29T08:27:26.524Z,93937.94
2022-08-29T08:28:23.280Z,93904.91
2022-08-29T08:29:19.987Z,93931.78
2022-08-29T08:30:16.752Z,93933.16
2022-08-29T08:31:15.451Z,93929.66
2022-08-29T08:32:12.067Z,93930.91
2022-08-29T08:33:08.839Z,93929.69
2022-08-29T08:34:05.872Z,93922.78
2022-08-29T08:35:02.646Z,93925.09
2022-08-29T08:35:59.280Z,93935.13
2022-08-29T08:36:56.026Z,93926.59
2022-08-29T08:37:53.523Z,93930.81
2022-08-29T08:38:51.744Z,93930.41
2022-08-29T08:39:48.377Z,93933.38
2022-08-29T08:41:28.139Z,93937.56
2022-08-29T08:42:44.026Z,93940.81
2022-08-29T08:44:00.158Z,93939.19
2022-08-29T08:45:16.540Z,93935.91
2022-08-29T08:46:13.972Z,93936.25
2022-08-29T08:47:13.229Z,93930.75
2022-08-29T08:48:22.777Z,93936.66
2022-08-29T08:49:31.104Z,93930.78
2022-08-29T08:50:43.561Z,93934.94
2022-08-29T08:51:47.940Z,93924.09
2022-08-29T08:52:51.936Z,93931.94
2022-08-29T08:53:52.293Z,93930.44
2022-08-29T08:55:03.188Z,93908.91
2022-08-29T08:56:05.490Z,93919.41
2022-08-29T08:57:11.400Z,93915.00
2022-08-29T08:58:29.732Z,93915.69
2022-08-29T08:59:46.550Z,93908.47
2022-08-29T09:01:11.194Z,93912.91
2022-08-29T09:02:37.315Z,93918.63
2022-08-29T09:03:57.269Z,93914.03
2022-08-29T09:05:21.587Z,93916.09
2022-08-29T09:06:45.964Z,93911.34
2022-08-29T09:08:04.582Z,93906.31
2022-08-29T09:09:16.348Z,93907.53
2022-08-29T09:10:31.871Z,93909.69
2022-08-29T09:11:41.459Z,93909.09
2022-08-29T09:13:11.531Z,93906.34
2022-08-29T09:14:42.609Z,93901.47
2022-08-29T09:15:45.900Z,93873.31
2022-08-29T09:16:47.619Z,93903.50
2022-08-29T09:18:13.549Z,93903.56
2022-08-29T09:19:13.095Z,93904.69
2022-08-29T09:20:24.068Z,93901.31
2022-08-29T09:21:40.557Z,93906.69
2022-08-29T09:22:40.745Z,93902.69
2022-08-29T09:23:54.587Z,93897.47
2022-08-29T09:25:11.515Z,93894.16
2022-08-29T09:26:08.341Z,93892.13
2022-08-29T09:27:06.269Z,93895.97
2022-08-29T09:28:06.564Z,93899.59
2022-08-29T09:29:03.377Z,93896.13
2022-08-29T09:30:08.269Z,93896.78
2022-08-29T09:31:18.992Z,93892.91
2022-08-29T09:32:22.141Z,93889.84
2022-08-29T09:33:19.290Z,93896.00
2022-08-29T09:35:08.091Z,93895.91
2022-08-29T09:36:05.858Z,93898.03
2022-08-29T09:37:02.636Z,93886.28
2022-08-29T09:38:05.699Z,93885.97
2022-08-29T09:39:16.012Z,93885.06
2022-08-29T09:40:17.815Z,93879.38
2022-08-29T09:41:28.371Z,93886.38
2022-08-29T09:42:36.498Z,93887.53
2022-08-29T09:43:38.921Z,93889.63
2022-08-29T09:44:35.866Z,93887.38
2022-08-29T09:45:32.703Z,93885.53
2022-08-29T09:46:29.457Z,93884.28
2022-08-29T09:47:28.524Z,93881.53
2022-08-29T09:48:25.240Z,93885.84
2022-08-29T09:49:22.456Z,93887.91
2022-08-29T09:50:26.376Z,93883.09
2022-08-29T09:51:39.268Z,93880.28
2022-08-29T09:52:39.657Z,93886.03
2022-08-29T09:53:36.272Z,93882.69
2022-08-29T09:54:34.200Z,93882.56
2022-08-29T09:55:35.659Z,93883.53
2022-08-29T09:56:32.419Z,93876.34
2022-08-29T09:57:29.636Z,93875.41
2022-08-29T09:58:37.565Z,93878.31
2022-08-29T09:59:39.807Z,93877.09
2022-08-29T10:00:44.733Z,93872.13
2022-08-29T10:01:41.685Z,93876.38
2022-08-29T10:02:57.669Z,93880.31
2022-08-29T10:04:03.448Z,93873.28
2022-08-29T10:05:10.370Z,93862.72
2022-08-29T10:06:16.864Z,93872.97
2022-08-29T10:07:18.511Z,93868.09
2022-08-29T10:08:35.295Z,93864.59
2022-08-29T10:09:31.902Z,93865.53
2022-08-29T10:10:31.004Z,93874.91
2022-08-29T10:11:35.181Z,93875.69
2022-08-29T10:12:37.644Z,93864.34
2022-08-29T10:14:00.551Z,93872.44
2022-08-29T10:15:02.218Z,93867.13
2022-08-29T10:16:11.004Z,93870.09
2022-08-29T10:17:44.893Z,93864.44
2022-08-29T10:19:02.739Z,93857.41
2022-08-29T10:19:59.750Z,93863.31
2022-08-29T10:21:10.196Z,93863.38
2022-08-29T10:22:32.947Z,93856.66
2022-08-29T10:23:51.610Z,93850.72
2022-08-29T10:25:00.619Z,93837.88
2022-08-29T10:26:02.143Z,93851.50
2022-08-29T10:27:26.610Z,93845.78
2022-08-29T10:28:39.494Z,93843.53
2022-08-29T10:29:52.836Z,93835.09
2022-08-29T10:30:58.323Z,93832.75
2022-08-29T10:32:07.189Z,93829.16
2022-08-29T10:33:42.066Z,93831.34
2022-08-29T10:34:49.547Z,93829.16
2022-08-29T10:36:06.445Z,93825.31
2022-08-29T10:38:05.064Z,93823.59
2022-08-29T10:39:07.237Z,93829.00
2022-08-29T10:40:17.900Z,93822.50
2022-08-29T10:41:24.963Z,93829.78
2022-08-29T10:42:25.303Z,93817.00
2022-08-29T10:43:48.328Z,93825.06
2022-08-29T10:45:14.483Z,93815.44
2022-08-29T10:46:13.901Z,93821.81
2022-08-29T10:47:29.975Z,93819.94
2022-08-29T10:48:35.153Z,93821.34
2022-08-29T10:49:44.358Z,93811.00
2022-08-29T10:51:03.257Z,93811.50
2022-08-29T10:52:06.019Z,93820.03
2022-08-29T10:53:20.374Z,93822.44
2022-08-29T10:54:44.760Z,93814.06
2022-08-29T10:55:55.731Z,93818.47
2022-08-29T10:56:52.459Z,93815.19
2022-08-29T10:58:12.586Z,93811.84
2022-08-29T10:59:12.377Z,93824.03
2022-08-29T11:00:12.989Z,93819.00
2022-08-29T11:01:25.547Z,93815.94
2022-08-29T11:02:33.572Z,93823.59
2022-08-29T11:03:42.126Z,93815.47
2022-08-29T11:04:45.944Z,93803.28
2022-08-29T11:05:54.705Z,93806.22
2022-08-29T11:06:57.164Z,93816.09
2022-08-29T11:08:00.334Z,93810.59
2022-08-29T11:09:25.412Z,93811.66
2022-08-29T11:10:30.694Z,93813.84
2022-08-29T11:11:31.164Z,93816.13
2022-08-29T11:12:52.942Z,93811.06
2022-08-29T11:14:16.677Z,93815.66
2022-08-29T11:15:48.709Z,93807.88
2022-08-29T11:16:49.503Z,93817.91
2022-08-29T11:17:54.188Z,93807.25
2022-08-29T11:19:13.121Z,93812.56
2022-08-29T11:20:19.640Z,93810.78
2022-08-29T11:21:16.438Z,93800.38
2022-08-29T11:22:26.465Z,93803.28
2022-08-29T11:23:40.040Z,93802.97
2022-08-29T11:24:42.000Z,93805.13
2022-08-29T11:25:42.001Z,93805.59
2022-08-29T11:26:44.640Z,93799.31
2022-08-29T11:27:59.993Z,93803.56
2022-08-29T11:29:25.291Z,93800.69
2022-08-29T11:30:29.507Z,93804.66
2022-08-29T11:31:58.310Z,93803.91
2022-08-29T11:32:57.754Z,93797.81
2022-08-29T11:34:16.306Z,93797.50
2022-08-29T11:35:18.351Z,93800.41
2022-08-29T11:36:28.099Z,93794.75
2022-08-29T11:37:30.618Z,93802.22
2022-08-29T11:38:59.233Z,93799.47
2022-08-29T11:40:10.148Z,93798.69
2022-08-29T11:41:29.122Z,93793.22
2022-08-29T11:42:50.638Z,93796.44
2022-08-29T11:43:52.112Z,93793.53
2022-08-29T11:44:52.834Z,93775.25
2022-08-29T11:46:00.305Z,93789.72
2022-08-29T11:46:58.000Z,93797.16
2022-08-29T11:48:02.038Z,93794.75
2022-08-29T11:49:27.360Z,93796.72
2022-08-29T11:50:36.611Z,93774.63
2022-08-29T11:51:40.044Z,93792.59
2022-08-29T11:52:36.924Z,93795.28
2022-08-29T11:53:37.619Z,93790.91
2022-08-29T11:54:34.227Z,93791.13
2022-08-29T11:55:42.524Z,93782.34
2022-08-29T11:56:39.157Z,93793.81
2022-08-29T11:57:35.784Z,93792.22
2022-08-29T11:58:32.968Z,93783.66